Time;durP1;ratioP1;P1;durP2;ratioP2;P2;SDS_P1;SDS_P2;PMS_P1;PMS_P2;Temp;Humidity;BMP_temperature;BMP_pressure;BME280_temperature;BME280_humidity;BME280_pressure;Samples;Min_cycle;Max_cycle;Signal;HPM_P1;HPM_P2
2022/07/08 00:00:06;;;;;;;6.30;2.20;;;;;;;15.44;76.69;100756.41;84819;1327;22756;-72
2022/07/08 00:02:34;;;;;;;3.90;1.90;;;;;;;15.41;76.66;100759.34;84838;1327;22648;-72
2022/07/08 00:04:41;;;;;;;2.90;2.00;;;;;;;15.41;76.81;100757.11;84820;1320;23157;-72
2022/07/08 00:06:49;;;;;;;6.70;2.20;;;;;;;15.40;76.75;100755.58;84849;1327;22582;-72
2022/07/08 00:08:56;;;;;;;3.10;2.10;;;;;;;15.40;77.09;100758.54;84838;1327;25809;-73
2022/07/08 00:11:04;;;;;;;2.90;2.10;;;;;;;15.42;77.17;100757.41;84823;1329;22591;-72
2022/07/08 00:13:12;;;;;;;5.60;2.10;;;;;;;15.42;77.31;100758.96;84872;1326;25371;-73
2022/07/08 00:15:20;;;;;;;3.10;2.30;;;;;;;15.44;77.39;100759.89;84865;1329;25256;-73
2022/07/08 00:17:28;;;;;;;3.30;2.00;;;;;;;15.46;77.40;100758.92;84790;1321;22737;-72
2022/07/08 00:19:36;;;;;;;7.10;2.40;;;;;;;15.47;77.42;100757.48;84862;1326;25410;-73
2022/07/08 00:21:43;;;;;;;5.10;2.60;;;;;;;15.48;77.47;100757.41;84855;1327;22671;-73
2022/07/08 00:23:51;;;;;;;3.20;2.20;;;;;;;15.51;77.54;100758.54;84845;1326;22650;-73
2022/07/08 00:25:58;;;;;;;7.90;2.60;;;;;;;15.50;77.53;100762.23;84853;1327;22654;-72
2022/07/08 00:28:06;;;;;;;3.10;2.40;;;;;;;15.50;77.66;100765.58;84854;1324;22656;-72
2022/07/08 00:30:15;;;;;;;4.80;2.30;;;;;;;15.51;77.83;100761.49;84843;1327;22842;-73
2022/07/08 00:32:22;;;;;;;2.60;2.20;;;;;;;15.51;77.75;100760.09;84836;1326;22613;-73
2022/07/08 00:34:30;;;;;;;3.30;2.40;;;;;;;15.50;77.83;100759.29;84836;1327;25267;-73
2022/07/08 00:36:37;;;;;;;5.40;2.60;;;;;;;15.50;77.95;100759.96;84807;1318;23015;-73
2022/07/08 00:38:45;;;;;;;5.40;2.40;;;;;;;15.50;77.81;100759.79;84854;1325;25511;-71
2022/07/08 00:40:52;;;;;;;4.80;2.40;;;;;;;15.48;77.81;100756.89;84713;1326;24274;-73
2022/07/08 00:43:00;;;;;;;4.40;2.80;;;;;;;15.50;78.23;100757.14;84853;1326;22671;-73
2022/07/08 00:45:09;;;;;;;7.20;2.90;;;;;;;15.54;78.54;100756.45;84858;1327;22610;-73
2022/07/08 00:47:16;;;;;;;3.00;2.50;;;;;;;15.56;78.30;100755.27;84797;1327;26718;-72
2022/07/08 00:49:24;;;;;;;6.50;3.20;;;;;;;15.59;78.04;100757.23;84854;1326;22748;-72
2022/07/08 00:51:32;;;;;;;4.50;2.60;;;;;;;15.59;78.14;100758.09;84810;1327;22597;-72
2022/07/08 00:53:42;;;;;;;4.50;2.80;;;;;;;15.60;78.36;100759.47;84841;1326;22686;-72
2022/07/08 00:55:50;;;;;;;5.50;3.10;;;;;;;15.60;78.43;100760.83;84865;1321;22830;-73
2022/07/08 00:57:57;;;;;;;4.90;2.50;;;;;;;15.59;78.31;100757.21;84837;1327;22639;-73
2022/07/08 01:00:06;;;;;;;4.80;2.70;;;;;;;15.59;78.38;100758.11;84849;1326;22779;-72
2022/07/08 01:02:14;;;;;;;5.20;2.00;;;;;;;15.58;78.57;100758.67;84854;1327;24394;-73
2022/07/08 01:04:21;;;;;;;4.10;2.70;;;;;;;15.58;78.63;100757.66;84820;1327;22620;-71
2022/07/08 01:06:29;;;;;;;4.20;2.20;;;;;;;15.58;78.47;100757.61;84825;1326;22807;-73
2022/07/08 01:08:37;;;;;;;3.00;1.90;;;;;;;15.59;78.45;100756.72;84825;1326;22603;-73
2022/07/08 01:10:44;;;;;;;3.60;2.30;;;;;;;15.59;78.10;100758.95;84858;1327;25458;-72
2022/07/08 01:12:52;;;;;;;4.20;1.90;;;;;;;15.59;78.07;100758.13;84891;1323;22594;-72
2022/07/08 01:15:00;;;;;;;4.40;2.60;;;;;;;15.57;77.77;100756.59;84881;1319;22784;-72
2022/07/08 01:17:07;;;;;;;3.80;2.20;;;;;;;15.56;77.66;100758.95;84852;1327;22737;-72
2022/07/08 01:19:15;;;;;;;10.30;2.60;;;;;;;15.56;77.69;100757.71;84843;1326;22618;-72
2022/07/08 01:21:22;;;;;;;2.70;2.40;;;;;;;15.55;78.01;100760.93;84837;1326;22606;-73
2022/07/08 01:23:29;;;;;;;3.90;2.00;;;;;;;15.55;78.19;100762.16;84739;1324;22676;-73
2022/07/08 01:25:37;;;;;;;4.50;2.80;;;;;;;15.54;78.27;100757.45;84865;1324;22702;-72
2022/07/08 01:27:44;;;;;;;3.70;1.90;;;;;;;15.55;78.36;100759.02;84826;1327;22689;-73
2022/07/08 01:29:52;;;;;;;5.10;2.20;;;;;;;15.54;78.52;100758.35;84808;1326;25477;-73
2022/07/08 01:32:03;;;;;;;11.30;2.80;;;;;;;15.56;78.90;100758.62;84837;1322;22564;-72
2022/07/08 01:34:10;;;;;;;5.60;1.90;;;;;;;15.57;79.04;100760.30;84796;1326;22617;-73
2022/07/08 01:36:18;;;;;;;5.40;2.90;;;;;;;15.58;78.89;100761.69;84813;1327;22861;-72
2022/07/08 01:38:25;;;;;;;2.30;1.80;;;;;;;15.57;78.89;100760.17;84830;1326;22697;-73
2022/07/08 01:40:33;;;;;;;4.00;2.10;;;;;;;15.56;78.90;100764.60;84883;1324;24685;-72
2022/07/08 01:42:40;;;;;;;3.80;2.30;;;;;;;15.56;79.08;100764.58;84793;1327;22698;-73
2022/07/08 01:44:48;;;;;;;4.70;2.00;;;;;;;15.57;79.15;100766.11;84828;1326;22565;-73
2022/07/08 01:46:55;;;;;;;5.50;2.00;;;;;;;15.57;79.19;100768.39;84760;1327;22588;-73
2022/07/08 01:49:03;;;;;;;3.70;2.30;;;;;;;15.58;79.27;100765.73;84879;1322;22576;-73
2022/07/08 01:51:10;;;;;;;3.10;2.10;;;;;;;15.60;79.13;100774.05;84754;1326;22607;-73
2022/07/08 01:53:18;;;;;;;3.30;1.90;;;;;;;15.62;79.01;100770.42;84841;1324;22625;-73
2022/07/08 01:55:26;;;;;;;3.60;1.80;;;;;;;15.63;78.95;100772.51;84834;1326;22588;-73
2022/07/08 01:57:34;;;;;;;5.80;3.10;;;;;;;15.63;79.07;100773.73;84837;1325;25750;-73
2022/07/08 01:59:42;;;;;;;4.80;2.40;;;;;;;15.63;79.27;100777.61;84878;1326;25454;-73
2022/07/08 02:01:49;;;;;;;8.00;3.10;;;;;;;15.63;79.29;100776.02;84803;1327;22677;-73
2022/07/08 02:03:57;;;;;;;3.00;2.30;;;;;;;15.63;79.23;100778.83;84832;1326;22648;-72
2022/07/08 02:06:05;;;;;;;4.50;2.30;;;;;;;15.62;79.11;100780.27;84863;1329;22600;-73
2022/07/08 02:08:12;;;;;;;3.40;1.80;;;;;;;15.61;79.00;100779.44;84828;1326;22583;-73
2022/07/08 02:10:19;;;;;;;6.50;2.10;;;;;;;15.59;78.90;100781.52;84702;1322;22588;-73
2022/07/08 02:12:27;;;;;;;6.10;2.20;;;;;;;15.56;78.91;100778.67;84811;1326;27077;-74
2022/07/08 02:14:34;;;;;;;5.10;2.10;;;;;;;15.53;79.08;100780.73;84890;1318;22774;-73
2022/07/08 02:16:42;;;;;;;2.70;2.40;;;;;;;15.52;78.98;100782.20;84829;1326;22793;-73
2022/07/08 02:18:49;;;;;;;2.80;1.90;;;;;;;15.53;78.99;100783.23;84836;1318;25590;-73
2022/07/08 02:20:57;;;;;;;2.70;2.40;;;;;;;15.52;78.91;100784.30;84782;1327;22611;-73
2022/07/08 02:23:04;;;;;;;3.00;2.60;;;;;;;15.51;78.89;100784.52;84751;1326;22612;-73
2022/07/08 02:25:12;;;;;;;4.10;2.40;;;;;;;15.51;78.85;100784.90;84896;1325;22635;-73
2022/07/08 02:27:19;;;;;;;8.20;3.00;;;;;;;15.50;78.76;100783.17;84818;1322;22717;-73
2022/07/08 02:29:27;;;;;;;4.10;2.60;;;;;;;15.50;79.02;100784.59;84898;1325;22583;-73
2022/07/08 02:31:35;;;;;;;6.10;3.70;;;;;;;15.51;79.29;100781.70;84712;1326;22833;-73
2022/07/08 02:33:42;;;;;;;7.20;3.60;;;;;;;15.53;79.25;100784.45;84840;1326;24488;-73
2022/07/08 02:35:49;;;;;;;6.90;4.10;;;;;;;15.53;79.19;100785.85;84808;1326;24449;-73
2022/07/08 02:37:57;;;;;;;5.60;2.80;;;;;;;15.53;79.24;100788.34;84762;1326;24460;-72
2022/07/08 02:40:06;;;;;;;4.40;2.50;;;;;;;15.53;79.40;100789.55;84839;1326;22656;-72
2022/07/08 02:42:13;;;;;;;5.30;2.60;;;;;;;15.54;79.47;100793.02;84839;1326;22800;-72
2022/07/08 02:44:21;;;;;;;7.30;3.30;;;;;;;15.54;79.58;100794.03;84546;1319;378545;-72
2022/07/08 02:46:28;;;;;;;5.50;3.00;;;;;;;15.57;79.67;100794.46;84819;1327;22593;-73
2022/07/08 02:48:36;;;;;;;5.80;3.20;;;;;;;15.59;79.64;100795.40;84822;1328;22574;-73
2022/07/08 02:50:43;;;;;;;7.80;2.90;;;;;;;15.61;79.76;100796.13;84864;1326;24323;-73
2022/07/08 02:52:50;;;;;;;6.00;2.80;;;;;;;15.62;79.74;100793.99;84833;1326;25560;-73
2022/07/08 02:54:58;;;;;;;4.30;2.20;;;;;;;15.61;79.65;100797.03;84717;1326;22819;-73
2022/07/08 02:57:06;;;;;;;3.30;2.60;;;;;;;15.61;79.81;100795.08;84826;1327;22677;-73
2022/07/08 02:59:13;;;;;;;5.70;2.80;;;;;;;15.62;79.90;100802.61;84787;1326;22633;-72
2022/07/08 03:01:21;;;;;;;4.50;2.50;;;;;;;15.62;80.02;100798.40;84733;1325;25443;-72
2022/07/08 03:03:28;;;;;;;5.00;3.10;;;;;;;15.62;80.06;100798.57;84790;1326;22672;-73
2022/07/08 03:05:36;;;;;;;5.10;3.00;;;;;;;15.63;80.11;100798.88;84802;1322;24293;-72
2022/07/08 03:07:43;;;;;;;5.90;2.30;;;;;;;15.63;80.26;100798.00;84731;1326;24239;-72
2022/07/08 03:09:51;;;;;;;4.30;2.70;;;;;;;15.64;80.13;100799.38;84865;1326;22617;-73
2022/07/08 03:11:58;;;;;;;6.30;2.90;;;;;;;15.65;80.26;100805.27;84816;1327;22601;-72
2022/07/08 03:14:06;;;;;;;5.70;3.10;;;;;;;15.66;80.06;100804.88;84875;1324;25466;-73
2022/07/08 03:16:13;;;;;;;7.80;3.00;;;;;;;15.70;80.02;100806.97;84827;1324;22675;-73
2022/07/08 03:18:21;;;;;;;4.40;2.90;;;;;;;15.72;79.82;100813.89;84817;1326;22821;-73
2022/07/08 03:20:29;;;;;;;3.80;2.50;;;;;;;15.72;80.02;100814.95;84827;1326;22600;-73
2022/07/08 03:22:36;;;;;;;5.50;3.10;;;;;;;15.74;80.14;100819.61;84829;1327;22840;-72
2022/07/08 03:24:44;;;;;;;3.10;2.50;;;;;;;15.76;80.14;100821.27;84836;1327;22628;-73
2022/07/08 03:26:51;;;;;;;4.90;3.10;;;;;;;15.78;80.00;100827.35;84828;1326;22650;-73
2022/07/08 03:28:59;;;;;;;4.20;2.60;;;;;;;15.80;80.00;100829.83;84839;1327;22839;-73
2022/07/08 03:31:06;;;;;;;4.10;2.90;;;;;;;15.83;79.97;100829.86;84824;1327;22589;-73
2022/07/08 03:33:14;;;;;;;3.70;2.90;;;;;;;15.85;79.94;100830.45;84826;1322;22641;-73
2022/07/08 03:35:22;;;;;;;5.70;3.30;;;;;;;15.87;79.93;100831.58;84816;1327;25518;-73
2022/07/08 03:37:29;;;;;;;6.50;3.30;;;;;;;15.90;79.74;100831.92;84840;1327;25398;-73
2022/07/08 03:39:37;;;;;;;8.90;3.90;;;;;;;15.92;79.83;100830.80;84723;1326;22660;-73
2022/07/08 03:41:44;;;;;;;4.80;3.40;;;;;;;15.95;79.92;100835.02;84835;1326;22603;-73
2022/07/08 03:43:53;;;;;;;4.10;3.30;;;;;;;15.98;80.00;100833.98;84750;1318;24266;-72
2022/07/08 03:46:00;;;;;;;4.70;3.40;;;;;;;16.01;79.81;100834.56;84820;1327;25517;-72
2022/07/08 03:48:08;;;;;;;7.10;3.60;;;;;;;16.02;79.68;100836.80;84858;1324;25651;-72
2022/07/08 03:50:16;;;;;;;5.80;3.10;;;;;;;16.04;79.55;100840.55;84840;1326;22701;-73
2022/07/08 03:52:23;;;;;;;3.30;2.90;;;;;;;16.05;79.35;100841.01;84812;1326;22712;-73
2022/07/08 03:54:30;;;;;;;9.40;3.50;;;;;;;16.08;79.36;100845.28;84814;1326;22589;-73
2022/07/08 03:56:38;;;;;;;7.20;3.60;;;;;;;16.11;79.44;100844.93;84808;1327;22571;-72
2022/07/08 03:58:45;;;;;;;5.40;3.50;;;;;;;16.15;79.55;100843.63;84812;1327;22601;-73
2022/07/08 04:00:53;;;;;;;4.30;3.30;;;;;;;16.20;79.32;100846.55;84842;1327;22598;-73
2022/07/08 04:03:00;;;;;;;6.40;3.10;;;;;;;16.26;79.30;100839.70;84795;1329;22606;-73
2022/07/08 04:05:09;;;;;;;5.20;3.00;;;;;;;16.34;79.43;100840.16;84827;1318;22574;-73
2022/07/08 04:07:17;;;;;;;5.80;3.60;;;;;;;16.41;79.56;100840.12;84811;1329;22644;-73
2022/07/08 04:09:24;;;;;;;7.30;3.20;;;;;;;16.50;79.38;100841.20;84825;1325;22624;-73
2022/07/08 04:11:32;;;;;;;6.30;3.40;;;;;;;16.61;79.00;100841.14;84809;1326;22676;-73
2022/07/08 04:13:39;;;;;;;4.80;3.10;;;;;;;16.71;78.82;100843.08;84797;1326;22586;-72
2022/07/08 04:15:46;;;;;;;7.30;5.10;;;;;;;16.80;78.43;100842.02;84789;1326;22620;-72
2022/07/08 04:17:54;;;;;;;8.00;3.90;;;;;;;16.90;78.04;100844.50;84717;1326;22582;-72
2022/07/08 04:20:01;;;;;;;7.80;4.30;;;;;;;16.95;77.37;100843.98;84814;1327;24232;-73
2022/07/08 04:22:09;;;;;;;6.50;4.20;;;;;;;17.03;77.08;100843.56;84813;1322;24382;-73
2022/07/08 04:24:16;;;;;;;8.40;3.60;;;;;;;17.09;77.05;100841.46;84858;1327;22587;-73
2022/07/08 04:26:28;;;;;;;9.00;3.40;;;;;;;17.16;77.06;100843.52;84807;1326;22584;-74
2022/07/08 04:28:35;;;;;;;4.40;3.20;;;;;;;17.23;76.92;100847.47;84825;1326;23565;-73
2022/07/08 04:30:42;;;;;;;7.70;3.50;;;;;;;17.30;76.85;100850.29;84810;1326;22594;-73
2022/07/08 04:32:50;;;;;;;6.10;3.50;;;;;;;17.37;76.76;100854.08;84826;1322;22574;-73
2022/07/08 04:34:59;;;;;;;5.00;3.40;;;;;;;17.47;76.79;100859.86;84783;1326;22653;-72
2022/07/08 04:37:07;;;;;;;5.90;3.60;;;;;;;17.62;76.84;100860.77;84766;1326;24405;-72
2022/07/08 04:39:14;;;;;;;4.90;3.30;;;;;;;17.77;76.76;100858.60;84787;1326;23161;-72
2022/07/08 04:41:22;;;;;;;11.10;4.10;;;;;;;17.96;76.69;100862.58;84712;1326;22596;-73
2022/07/08 04:43:29;;;;;;;6.50;4.10;;;;;;;18.20;76.57;100862.34;84746;1317;23120;-72
2022/07/08 04:45:37;;;;;;;6.30;3.30;;;;;;;18.52;76.56;100859.11;84721;1326;22576;-72
2022/07/08 04:47:46;;;;;;;6.90;4.10;;;;;;;19.01;75.75;100858.63;84767;1326;22663;-74
2022/07/08 04:49:53;;;;;;;9.60;3.60;;;;;;;19.49;73.92;100864.77;84845;1326;22580;-73
2022/07/08 04:52:01;;;;;;;7.00;3.10;;;;;;;19.68;72.54;100865.32;84765;1322;22731;-72
2022/07/08 04:54:08;;;;;;;12.30;3.80;;;;;;;19.78;71.97;100862.65;84717;1326;22598;-72
2022/07/08 04:56:16;;;;;;;6.20;3.70;;;;;;;19.91;71.35;100860.58;84846;1326;25439;-72
2022/07/08 04:58:23;;;;;;;7.60;3.70;;;;;;;19.96;70.19;100864.83;84882;1325;24379;-72
2022/07/08 05:00:31;;;;;;;11.30;4.20;;;;;;;20.01;69.70;100865.02;84813;1327;22625;-73
2022/07/08 05:02:39;;;;;;;6.80;3.50;;;;;;;20.06;68.96;100863.03;84802;1327;22693;-73
2022/07/08 05:04:46;;;;;;;8.00;3.10;;;;;;;20.10;68.32;100861.36;84835;1326;22595;-73
2022/07/08 05:06:54;;;;;;;7.90;3.10;;;;;;;20.33;69.82;100861.13;84802;1326;22704;-73
2022/07/08 05:09:01;;;;;;;6.20;3.10;;;;;;;20.70;68.05;100864.17;84815;1326;22642;-73
2022/07/08 05:11:09;;;;;;;7.90;2.90;;;;;;;20.78;66.26;100866.98;84753;1322;22604;-73
2022/07/08 05:13:16;;;;;;;6.20;2.80;;;;;;;20.81;65.58;100867.48;84759;1326;22605;-73
2022/07/08 05:15:24;;;;;;;8.10;2.90;;;;;;;20.84;65.18;100871.11;84716;1326;22598;-73
2022/07/08 05:17:32;;;;;;;5.40;2.60;;;;;;;20.92;64.85;100872.73;84760;1326;25294;-73
2022/07/08 05:19:39;;;;;;;7.40;3.00;;;;;;;20.99;64.78;100876.27;84846;1322;24369;-73
2022/07/08 05:21:47;;;;;;;7.70;2.70;;;;;;;21.12;64.72;100875.86;84849;1327;24296;-73
2022/07/08 05:23:54;;;;;;;10.00;3.00;;;;;;;21.26;64.87;100876.36;84856;1326;22582;-72
2022/07/08 05:26:02;;;;;;;10.60;2.40;;;;;;;21.50;64.84;100874.40;84838;1324;22668;-73
2022/07/08 05:28:09;;;;;;;5.90;2.80;;;;;;;22.06;64.71;100872.45;84862;1326;22667;-73
2022/07/08 05:30:17;;;;;;;5.20;2.90;;;;;;;22.65;63.13;100874.13;84813;1326;22612;-73
2022/07/08 05:32:24;;;;;;;12.50;2.30;;;;;;;23.52;63.42;100871.63;84882;1326;22661;-73
2022/07/08 05:34:32;;;;;;;9.90;2.10;;;;;;;24.55;60.03;100868.98;84799;1326;22598;-73
2022/07/08 05:36:40;;;;;;;6.00;2.90;;;;;;;25.16;56.07;100870.09;84713;1325;24488;-73
2022/07/08 05:38:47;;;;;;;6.90;2.70;;;;;;;25.48;52.90;100867.30;84724;1326;22606;-73
2022/07/08 05:40:54;;;;;;;2.90;2.00;;;;;;;25.61;50.76;100869.15;84726;1326;22641;-73
2022/07/08 05:43:03;;;;;;;4.00;2.10;;;;;;;25.62;49.61;100872.61;84710;1326;22724;-73
2022/07/08 05:45:13;;;;;;;2.30;1.40;;;;;;;25.39;49.00;100872.08;84766;1327;24217;-73
2022/07/08 05:47:20;;;;;;;2.70;1.70;;;;;;;25.00;49.36;100872.45;84832;1326;22611;-73
2022/07/08 05:49:28;;;;;;;3.20;1.60;;;;;;;24.73;50.30;100875.76;84797;1330;25475;-74
2022/07/08 05:51:35;;;;;;;3.20;1.80;;;;;;;24.47;50.56;100879.65;84756;1326;24324;-73
2022/07/08 05:53:43;;;;;;;4.20;1.50;;;;;;;24.20;50.65;100878.61;84766;1326;25470;-73
2022/07/08 05:55:50;;;;;;;2.20;1.60;;;;;;;23.96;50.80;100880.18;84695;1326;22639;-74
2022/07/08 05:57:58;;;;;;;5.60;1.90;;;;;;;23.70;50.93;100884.19;84751;1326;25271;-74
2022/07/08 06:00:08;;;;;;;2.60;1.60;;;;;;;23.48;51.56;100886.19;84826;1323;22648;-73
2022/07/08 06:02:15;;;;;;;5.10;2.00;;;;;;;23.29;52.47;100881.70;84773;1325;22589;-73
2022/07/08 06:04:23;;;;;;;5.20;1.90;;;;;;;23.15;53.11;100887.84;84763;1322;22676;-73
2022/07/08 06:06:30;;;;;;;4.10;2.80;;;;;;;22.99;53.43;100892.25;84814;1326;22684;-74
2022/07/08 06:08:37;;;;;;;5.00;1.60;;;;;;;22.87;54.02;100896.23;84813;1324;22608;-73
2022/07/08 06:10:45;;;;;;;3.40;2.00;;;;;;;22.79;54.19;100902.57;84794;1324;22679;-72
2022/07/08 06:12:53;;;;;;;5.70;2.30;;;;;;;22.71;54.12;100901.92;84788;1326;22667;-72
2022/07/08 06:15:01;;;;;;;3.80;1.80;;;;;;;22.66;54.68;100906.27;84825;1327;22613;-73
2022/07/08 06:17:08;;;;;;;4.50;1.90;;;;;;;22.63;54.83;100906.33;84810;1318;22672;-73
2022/07/08 06:19:16;;;;;;;4.80;2.10;;;;;;;22.59;54.86;100906.11;84772;1326;22600;-73
2022/07/08 06:21:23;;;;;;;2.70;1.90;;;;;;;22.56;55.34;100909.52;84797;1326;25324;-73
2022/07/08 06:23:34;;;;;;;5.50;1.80;;;;;;;22.61;55.80;100910.73;84784;1328;22594;-73
2022/07/08 06:25:42;;;;;;;4.80;2.50;;;;;;;22.67;55.96;100913.65;84788;1327;25615;-74
2022/07/08 06:27:49;;;;;;;2.90;1.80;;;;;;;22.76;55.71;100913.50;84756;1326;22587;-73
2022/07/08 06:29:57;;;;;;;16.00;4.00;;;;;;;22.80;55.83;100913.30;84764;1326;22588;-74
2022/07/08 06:32:05;;;;;;;7.00;1.90;;;;;;;22.81;55.88;100913.44;84746;1326;22590;-73
2022/07/08 06:34:12;;;;;;;3.50;1.70;;;;;;;22.85;55.73;100914.13;84850;1321;22708;-73
2022/07/08 06:36:20;;;;;;;6.80;2.20;;;;;;;22.89;55.42;100914.37;84816;1327;22612;-73
2022/07/08 06:38:27;;;;;;;6.40;2.20;;;;;;;22.95;55.59;100916.05;84869;1328;22762;-73
2022/07/08 06:40:35;;;;;;;14.80;2.70;;;;;;;23.02;55.06;100917.64;84767;1318;22577;-73
2022/07/08 06:42:42;;;;;;;7.70;1.70;;;;;;;23.11;55.07;100917.92;84766;1327;22580;-72
2022/07/08 06:44:50;;;;;;;2.90;1.70;;;;;;;23.24;54.88;100916.89;84804;1326;22588;-71
2022/07/08 06:46:57;;;;;;;3.50;1.80;;;;;;;23.50;54.87;100921.31;84757;1327;25835;-72
2022/07/08 06:49:05;;;;;;;3.70;2.30;;;;;;;23.78;54.02;100919.34;84806;1324;22707;-72
2022/07/08 06:51:12;;;;;;;2.20;1.70;;;;;;;24.01;53.67;100922.16;84824;1325;22662;-72
2022/07/08 06:53:20;;;;;;;2.60;1.90;;;;;;;24.27;53.44;100919.91;84771;1327;22712;-72
2022/07/08 06:55:27;;;;;;;5.40;1.80;;;;;;;24.64;53.15;100922.58;84819;1327;22590;-72
2022/07/08 06:57:35;;;;;;;4.70;1.90;;;;;;;25.05;51.94;100918.52;84871;1324;22663;-72
2022/07/08 06:59:42;;;;;;;4.90;2.00;;;;;;;25.42;51.72;100918.24;84777;1327;22628;-72
2022/07/08 07:01:50;;;;;;;2.50;1.70;;;;;;;25.70;50.81;100915.66;84739;1324;22585;-72
2022/07/08 07:03:57;;;;;;;4.70;1.70;;;;;;;25.99;50.38;100922.64;84820;1326;25361;-72
2022/07/08 07:06:05;;;;;;;3.40;2.20;;;;;;;26.32;50.04;100925.90;84800;1330;22701;-71
2022/07/08 07:08:13;;;;;;;4.70;2.80;;;;;;;27.15;50.16;100921.56;84797;1326;22595;-72
2022/07/08 07:10:20;;;;;;;4.40;2.90;;;;;;;28.31;48.17;100920.76;84792;1326;25492;-72
2022/07/08 07:12:28;;;;;;;3.20;1.90;;;;;;;29.02;45.52;100919.50;84699;1326;22624;-72
2022/07/08 07:14:35;;;;;;;5.80;2.30;;;;;;;29.49;43.47;100921.97;84807;1326;22604;-72
2022/07/08 07:16:43;;;;;;;3.00;2.30;;;;;;;30.06;42.73;100919.13;84873;1325;22597;-71
2022/07/08 07:18:50;;;;;;;5.00;1.80;;;;;;;30.76;40.92;100917.48;84830;1326;22673;-72
2022/07/08 07:20:58;;;;;;;4.30;1.70;;;;;;;31.53;38.98;100914.45;84722;1322;22630;-72
2022/07/08 07:23:06;;;;;;;3.90;2.20;;;;;;;32.23;37.76;100913.30;84797;1326;24449;-72
2022/07/08 07:25:13;;;;;;;2.10;1.50;;;;;;;32.76;35.19;100909.15;84711;1326;22586;-72
2022/07/08 07:27:21;;;;;;;7.70;1.90;;;;;;;33.10;34.29;100905.48;84798;1326;22618;-73
2022/07/08 07:29:31;;;;;;;3.60;1.80;;;;;;;33.42;33.86;100900.70;84830;1327;24371;-73
2022/07/08 07:31:38;;;;;;;4.30;2.50;;;;;;;33.96;34.27;100902.70;84818;1326;22681;-73
2022/07/08 07:33:46;;;;;;;3.80;2.10;;;;;;;34.59;32.54;100901.63;84824;1324;22584;-73
2022/07/08 07:35:54;;;;;;;4.10;1.90;;;;;;;34.98;32.01;100898.65;84820;1328;22576;-73
2022/07/08 07:38:03;;;;;;;5.50;1.90;;;;;;;35.38;30.96;100897.35;84722;1326;22674;-73
2022/07/08 07:40:09;;;;;;;;;;;;;;;35.72;30.42;100899.50;84745;1325;22609;-73
2022/07/08 07:42:17;;;;;;;2.50;1.70;;;;;;;36.02;29.53;100893.62;84898;1322;25435;-72
2022/07/08 07:44:26;;;;;;;2.10;1.80;;;;;;;36.38;28.78;100896.88;84797;1326;22597;-73
2022/07/08 07:46:34;;;;;;;2.20;1.90;;;;;;;36.64;28.70;100893.61;84791;1324;22728;-72
2022/07/08 07:48:41;;;;;;;2.50;1.90;;;;;;;36.84;28.57;100891.83;84791;1327;22607;-72
2022/07/08 07:50:48;;;;;;;2.20;2.00;;;;;;;37.12;27.83;100889.67;84804;1326;22624;-73
2022/07/08 07:52:56;;;;;;;3.10;1.50;;;;;;;37.38;27.68;100890.46;84769;1318;22670;-73
2022/07/08 07:55:04;;;;;;;2.40;1.60;;;;;;;37.68;27.47;100893.70;84792;1324;22657;-72
2022/07/08 07:57:14;;;;;;;3.20;1.90;;;;;;;38.04;26.82;100890.89;84791;1326;25433;-73
2022/07/08 07:59:21;;;;;;;2.30;1.60;;;;;;;38.25;26.25;100897.27;84780;1326;22623;-73
2022/07/08 08:01:29;;;;;;;4.30;1.80;;;;;;;38.36;25.41;100893.08;84811;1318;22595;-72
2022/07/08 08:03:37;;;;;;;2.00;1.70;;;;;;;38.38;25.26;100895.54;84760;1326;22676;-72
2022/07/08 08:05:44;;;;;;;4.00;1.80;;;;;;;38.37;24.92;100892.55;84823;1326;22594;-73
2022/07/08 08:07:52;;;;;;;11.50;1.90;;;;;;;37.93;25.62;100896.16;84751;1326;22583;-72
2022/07/08 08:10:01;;;;;;;3.90;2.00;;;;;;;37.00;26.76;100895.09;84703;1322;23015;-73
2022/07/08 08:12:11;;;;;;;4.10;2.50;;;;;;;35.72;27.99;100896.68;84733;1326;22593;-72
2022/07/08 08:14:18;;;;;;;2.30;2.00;;;;;;;34.36;29.45;100903.40;84743;1326;22630;-73
2022/07/08 08:16:26;;;;;;;3.10;2.10;;;;;;;33.12;31.37;100904.81;84866;1327;22590;-73
2022/07/08 08:18:34;;;;;;;6.30;2.10;;;;;;;31.99;32.81;100907.75;84753;1326;24519;-73
2022/07/08 08:20:42;;;;;;;2.80;2.10;;;;;;;30.98;34.37;100909.45;84799;1326;22668;-73
2022/07/08 08:22:49;;;;;;;4.30;1.80;;;;;;;30.08;35.47;100913.34;84858;1324;22694;-72
2022/07/08 08:24:57;;;;;;;3.90;1.90;;;;;;;29.35;36.99;100908.67;84845;1327;22691;-72
2022/07/08 08:27:04;;;;;;;2.90;2.10;;;;;;;28.74;38.53;100904.04;84820;1326;22684;-72
2022/07/08 08:29:12;;;;;;;3.10;2.00;;;;;;;28.18;39.31;100903.08;84856;1317;22676;-72
2022/07/08 08:31:21;;;;;;;4.40;2.30;;;;;;;27.78;40.52;100908.30;84806;1324;24222;-73
2022/07/08 08:33:28;;;;;;;4.10;2.50;;;;;;;27.62;41.39;100904.73;84813;1327;22651;-73
2022/07/08 08:35:36;;;;;;;24.20;3.80;;;;;;;27.81;42.84;100906.34;84837;1324;22734;-73
2022/07/08 08:37:43;;;;;;;2.70;2.50;;;;;;;28.41;42.74;100903.45;84776;1326;25713;-73
2022/07/08 08:39:51;;;;;;;4.50;3.10;;;;;;;28.89;40.87;100895.42;84864;1321;24363;-73
2022/07/08 08:42:00;;;;;;;3.40;3.10;;;;;;;28.81;39.70;100897.77;84860;1326;22962;-73
2022/07/08 08:44:07;;;;;;;3.30;3.00;;;;;;;28.51;39.58;100892.87;84785;1326;22559;-73
2022/07/08 08:46:15;;;;;;;4.70;3.20;;;;;;;28.18;39.95;100895.20;84848;1327;22710;-73
2022/07/08 08:48:25;;;;;;;3.40;2.90;;;;;;;27.78;40.24;100902.77;84844;1326;22659;-73
2022/07/08 08:52:57;;;;;;;4.40;2.60;;;;;;;26.77;41.81;100911.14;84868;1326;22600;-73
2022/07/08 08:55:06;;;;;;;2.50;2.30;;;;;;;26.46;42.53;100909.77;84809;1326;25493;-73
2022/07/08 08:57:14;;;;;;;6.20;2.50;;;;;;;26.14;42.95;100919.05;84711;1326;22642;-73
2022/07/08 08:59:21;;;;;;;6.20;3.40;;;;;;;25.84;44.42;100919.66;84790;1326;22606;-73
2022/07/08 09:01:30;;;;;;;3.90;3.20;;;;;;;25.54;46.90;100921.42;84818;1328;22833;-73
2022/07/08 09:03:37;;;;;;;4.50;3.20;;;;;;;25.21;48.60;100924.65;84805;1326;22745;-73
2022/07/08 09:05:45;;;;;;;9.10;3.20;;;;;;;24.83;49.91;100920.55;84849;1327;22604;-73
2022/07/08 09:07:53;;;;;;;5.00;3.00;;;;;;;24.53;50.88;100923.74;84880;1323;22600;-73
2022/07/08 09:10:03;;;;;;;3.30;3.00;;;;;;;24.33;51.83;100926.23;84834;1326;22610;-74
2022/07/08 09:12:25;;;;;;;4.40;2.70;;;;;;;24.11;52.23;100928.44;84858;1326;22591;-74
2022/07/08 09:14:33;;;;;;;4.20;2.10;;;;;;;23.91;53.20;100926.21;84845;1323;22614;-74
2022/07/08 09:16:40;;;;;;;3.60;2.00;;;;;;;23.79;53.46;100923.13;84786;1324;22842;-74
2022/07/08 09:18:50;;;;;;;1.90;1.70;;;;;;;23.68;54.14;100914.62;84829;1326;25561;-74
2022/07/08 09:21:00;;;;;;;1.90;1.70;;;;;;;23.58;54.57;100913.67;84799;1326;22634;-71
2022/07/08 09:23:10;;;;;;;2.30;2.10;;;;;;;23.49;55.76;100911.43;84853;1327;22616;-74
2022/07/08 09:25:21;;;;;;;1.80;1.70;;;;;;;23.36;56.47;100909.05;84805;1326;24468;-74
2022/07/08 09:27:29;;;;;;;1.70;1.60;;;;;;;23.21;56.97;100906.95;84844;1326;22704;-74
2022/07/08 09:29:39;;;;;;;2.20;2.00;;;;;;;23.15;57.79;100906.90;84834;1326;22602;-73
2022/07/08 09:31:48;;;;;;;1.90;1.80;;;;;;;23.12;58.71;100905.52;84782;1327;25454;-73
2022/07/08 09:33:56;;;;;;;2.30;2.10;;;;;;;23.08;59.12;100908.96;84835;1329;25526;-74
2022/07/08 09:36:04;;;;;;;2.80;2.60;;;;;;;23.08;59.03;100908.20;84751;1322;25499;-73
2022/07/08 09:38:12;;;;;;;2.80;2.50;;;;;;;23.11;59.02;100902.07;84820;1326;22687;-74
2022/07/08 09:40:21;;;;;;;2.90;2.70;;;;;;;23.15;59.41;100903.66;84842;1325;22684;-73
2022/07/08 09:42:29;;;;;;;2.70;2.60;;;;;;;23.17;59.10;100901.24;84762;1326;22685;-73
2022/07/08 09:44:39;;;;;;;2.60;2.40;;;;;;;23.25;59.58;100899.17;84816;1326;22748;-73
2022/07/08 09:46:47;;;;;;;3.40;2.30;;;;;;;23.35;60.25;100903.45;84830;1327;22669;-74
2022/07/08 09:48:55;;;;;;;2.80;2.40;;;;;;;23.44;60.11;100901.67;84843;1327;22581;-74
2022/07/08 09:51:07;;;;;;;2.40;2.30;;;;;;;23.52;60.10;100901.67;84778;1324;25255;-73
2022/07/08 09:53:19;;;;;;;2.30;2.10;;;;;;;23.64;60.00;100899.08;84820;1327;24453;-73
2022/07/08 09:55:33;;;;;;;2.60;1.80;;;;;;;23.76;59.46;100895.27;84850;1327;24275;-72